Lausanne, Switzerland
Current Conditions -  °F | °C
As of 10:50 AM on Sunday 23 Nov 2014 (Local Time) from LSMP Reporting Station
Moderate Fog Moderate Fog  
Wind Chill: 43°   Ceiling: 100
Heat Index: 43°   Visibility: 0.25mi
Dew Point: 43°   Wind: 2mph
Humidity: 100%   Direction: NA
Pressure: 30.24"   Gusts: NA
Location:  46.52°N, 6.62°E
Report Text: LSMP 230950Z AUTO VRB02KT 0400NDV R05/0600N R23/0600N FG VV001 06/06 Q1024 RMK RED
Loading
Personal Weather Stations






























Interactive Weather Map New forecast layout! Learn more

10-Day Weather Forecast

Advertisements
Track Severe Weather on mobile